sensor_id;sensor_type;location;lat;lon;timestamp;pressure;altitude;pressure_sealevel;temperature;humidity
69836;BME280;57132;51.972;4.450;2023-04-09T00:00:32;102520.63;;;5.37;100.00
69836;BME280;57132;51.972;4.450;2023-04-09T00:02:57;102519.81;;;5.33;100.00
69836;BME280;57132;51.972;4.450;2023-04-09T00:05:23;102515.47;;;5.29;100.00
69836;BME280;57132;51.972;4.450;2023-04-09T00:07:48;102516.44;;;5.27;100.00
69836;BME280;57132;51.972;4.450;2023-04-09T00:10:13;102521.75;;;5.27;100.00
69836;BME280;57132;51.972;4.450;2023-04-09T00:12:39;102521.84;;;5.21;100.00
69836;BME280;57132;51.972;4.450;2023-04-09T00:15:04;102529.03;;;5.15;100.00
69836;BME280;57132;51.972;4.450;2023-04-09T00:17:30;102522.13;;;5.08;100.00
69836;BME280;57132;51.972;4.450;2023-04-09T00:19:55;102524.88;;;5.02;100.00
69836;BME280;57132;51.972;4.450;2023-04-09T00:22:21;102523.25;;;4.97;100.00
69836;BME280;57132;51.972;4.450;2023-04-09T00:24:46;102524.16;;;4.94;100.00
69836;BME280;57132;51.972;4.450;2023-04-09T00:27:11;102517.13;;;4.93;100.00
69836;BME280;57132;51.972;4.450;2023-04-09T00:29:37;102520.66;;;4.93;100.00
69836;BME280;57132;51.972;4.450;2023-04-09T00:32:02;102520.72;;;4.90;100.00
69836;BME280;57132;51.972;4.450;2023-04-09T00:34:27;102514.59;;;4.87;100.00
69836;BME280;57132;51.972;4.450;2023-04-09T00:36:53;102513.75;;;4.86;100.00
69836;BME280;57132;51.972;4.450;2023-04-09T00:39:18;102509.44;;;4.81;100.00
69836;BME280;57132;51.972;4.450;2023-04-09T00:41:43;102513.97;;;4.76;100.00
69836;BME280;57132;51.972;4.450;2023-04-09T00:44:09;102504.41;;;4.68;100.00
69836;BME280;57132;51.972;4.450;2023-04-09T00:46:34;102500.06;;;4.64;100.00
69836;BME280;57132;51.972;4.450;2023-04-09T00:48:59;102498.34;;;4.63;100.00
69836;BME280;57132;51.972;4.450;2023-04-09T00:51:25;102500.09;;;4.63;100.00
69836;BME280;57132;51.972;4.450;2023-04-09T00:53:52;102501.03;;;4.60;100.00
69836;BME280;57132;51.972;4.450;2023-04-09T00:56:17;102498.50;;;4.56;100.00
69836;BME280;57132;51.972;4.450;2023-04-09T00:58:45;102499.44;;;4.52;100.00
69836;BME280;57132;51.972;4.450;2023-04-09T01:01:11;102496.84;;;4.49;100.00
69836;BME280;57132;51.972;4.450;2023-04-09T01:03:36;102497.72;;;4.49;100.00
69836;BME280;57132;51.972;4.450;2023-04-09T01:06:32;102495.06;;;4.49;100.00
69836;BME280;57132;51.972;4.450;2023-04-09T01:09:13;102503.00;;;4.49;100.00
69836;BME280;57132;51.972;4.450;2023-04-09T01:14:38;102492.44;;;4.49;100.00
69836;BME280;57132;51.972;4.450;2023-04-09T01:17:14;102498.63;;;4.48;100.00
69836;BME280;57132;51.972;4.450;2023-04-09T01:22:30;102496.66;;;4.58;100.00
69836;BME280;57132;51.972;4.450;2023-04-09T01:25:08;102498.50;;;4.54;100.00
69836;BME280;57132;51.972;4.450;2023-04-09T01:27:48;102498.56;;;4.51;100.00
69836;BME280;57132;51.972;4.450;2023-04-09T01:30:19;102498.59;;;4.50;100.00
69836;BME280;57132;51.972;4.450;2023-04-09T01:32:44;102505.66;;;4.49;100.00
69836;BME280;57132;51.972;4.450;2023-04-09T01:35:11;102501.28;;;4.48;100.00
69836;BME280;57132;51.972;4.450;2023-04-09T01:37:37;102501.28;;;4.48;100.00
69836;BME280;57132;51.972;4.450;2023-04-09T01:40:05;102503.88;;;4.50;100.00
69836;BME280;57132;51.972;4.450;2023-04-09T01:42:31;102495.94;;;4.50;100.00
69836;BME280;57132;51.972;4.450;2023-04-09T01:44:57;102498.59;;;4.50;100.00
69836;BME280;57132;51.972;4.450;2023-04-09T01:47:23;102497.63;;;4.54;100.00
69836;BME280;57132;51.972;4.450;2023-04-09T01:49:50;102498.50;;;4.56;100.00
69836;BME280;57132;51.972;4.450;2023-04-09T01:52:15;102494.94;;;4.55;100.00
69836;BME280;57132;51.972;4.450;2023-04-09T01:54:41;102496.81;;;4.52;100.00
69836;BME280;57132;51.972;4.450;2023-04-09T01:57:07;102490.66;;;4.50;100.00
69836;BME280;57132;51.972;4.450;2023-04-09T01:59:32;102492.50;;;4.46;100.00
69836;BME280;57132;51.972;4.450;2023-04-09T02:02:05;102491.72;;;4.41;100.00
69836;BME280;57132;51.972;4.450;2023-04-09T02:04:39;102492.69;;;4.35;100.00
69836;BME280;57132;51.972;4.450;2023-04-09T02:07:09;102488.38;;;4.30;100.00
69836;BME280;57132;51.972;4.450;2023-04-09T02:09:39;102491.06;;;4.28;100.00
69836;BME280;57132;51.972;4.450;2023-04-09T02:12:06;102490.25;;;4.23;100.00
69836;BME280;57132;51.972;4.450;2023-04-09T02:14:36;102486.69;;;4.26;100.00
69836;BME280;57132;51.972;4.450;2023-04-09T02:17:02;102477.91;;;4.24;100.00
69836;BME280;57132;51.972;4.450;2023-04-09T02:19:57;102484.91;;;4.26;100.00
69836;BME280;57132;51.972;4.450;2023-04-09T02:22:22;102484.91;;;4.28;100.00
69836;BME280;57132;51.972;4.450;2023-04-09T02:24:47;102473.53;;;4.23;100.00
69836;BME280;57132;51.972;4.450;2023-04-09T02:27:13;102470.94;;;4.19;100.00
69836;BME280;57132;51.972;4.450;2023-04-09T02:29:39;102470.97;;;4.18;100.00
69836;BME280;57132;51.972;4.450;2023-04-09T02:32:05;102472.84;;;4.11;100.00
69836;BME280;57132;51.972;4.450;2023-04-09T02:34:30;102472.94;;;4.07;100.00
69836;BME280;57132;51.972;4.450;2023-04-09T02:36:55;102477.34;;;4.06;100.00
69836;BME280;57132;51.972;4.450;2023-04-09T02:39:21;102472.88;;;4.10;100.00
69836;BME280;57132;51.972;4.450;2023-04-09T02:41:46;102469.25;;;4.17;100.00
69836;BME280;57132;51.972;4.450;2023-04-09T02:44:11;102465.66;;;4.21;100.00
69836;BME280;57132;51.972;4.450;2023-04-09T02:46:38;102468.09;;;4.30;100.00
69836;BME280;57132;51.972;4.450;2023-04-09T02:49:04;102458.31;;;4.37;100.00
69836;BME280;57132;51.972;4.450;2023-04-09T02:51:29;102466.09;;;4.43;100.00
69836;BME280;57132;51.972;4.450;2023-04-09T02:53:55;102466.97;;;4.45;100.00
69836;BME280;57132;51.972;4.450;2023-04-09T02:56:20;102464.22;;;4.50;100.00
69836;BME280;57132;51.972;4.450;2023-04-09T02:58:46;102464.16;;;4.53;100.00
69836;BME280;57132;51.972;4.450;2023-04-09T03:01:13;102453.50;;;4.57;100.00
69836;BME280;57132;51.972;4.450;2023-04-09T03:03:39;102457.75;;;4.64;100.00
69836;BME280;57132;51.972;4.450;2023-04-09T03:06:06;102459.34;;;4.73;100.00
69836;BME280;57132;51.972;4.450;2023-04-09T03:08:32;102455.72;;;4.77;100.00
69836;BME280;57132;51.972;4.450;2023-04-09T03:10:57;102465.31;;;4.83;100.00
69836;BME280;57132;51.972;4.450;2023-04-09T03:13:22;102453.69;;;4.90;100.00
69836;BME280;57132;51.972;4.450;2023-04-09T03:15:51;102445.66;;;4.94;100.00
69836;BME280;57132;51.972;4.450;2023-04-09T03:18:19;102454.38;;;5.00;100.00
69836;BME280;57132;51.972;4.450;2023-04-09T03:20:45;102445.44;;;5.05;100.00
69836;BME280;57132;51.972;4.450;2023-04-09T03:23:10;102448.81;;;5.12;100.00
69836;BME280;57132;51.972;4.450;2023-04-09T03:25:36;102444.34;;;5.15;100.00
69836;BME280;57132;51.972;4.450;2023-04-09T03:28:02;102445.94;;;5.23;100.00
69836;BME280;57132;51.972;4.450;2023-04-09T03:30:27;102445.72;;;5.32;100.00
69836;BME280;57132;51.972;4.450;2023-04-09T03:32:53;102436.75;;;5.37;100.00
69836;BME280;57132;51.972;4.450;2023-04-09T03:35:18;102440.19;;;5.42;100.00
69836;BME280;57132;51.972;4.450;2023-04-09T03:37:44;102435.66;;;5.46;100.00
69836;BME280;57132;51.972;4.450;2023-04-09T03:40:10;102429.34;;;5.52;100.00
69836;BME280;57132;51.972;4.450;2023-04-09T03:42:35;102426.53;;;5.58;100.00
69836;BME280;57132;51.972;4.450;2023-04-09T03:45:02;102422.84;;;5.65;100.00
69836;BME280;57132;51.972;4.450;2023-04-09T03:47:27;102425.38;;;5.70;100.00
69836;BME280;57132;51.972;4.450;2023-04-09T03:49:53;102437.53;;;5.78;100.00
69836;BME280;57132;51.972;4.450;2023-04-09T03:52:18;102432.94;;;5.85;100.00
69836;BME280;57132;51.972;4.450;2023-04-09T03:54:44;102438.97;;;5.91;100.00
69836;BME280;57132;51.972;4.450;2023-04-09T03:57:09;102436.97;;;6.01;100.00
69836;BME280;57132;51.972;4.450;2023-04-09T03:59:34;102436.81;;;6.07;100.00
69836;BME280;57132;51.972;4.450;2023-04-09T04:02:00;102435.81;;;6.11;100.00
69836;BME280;57132;51.972;4.450;2023-04-09T04:04:25;102429.44;;;6.19;100.00
69836;BME280;57132;51.972;4.450;2023-04-09T04:06:51;102434.56;;;6.25;100.00
69836;BME280;57132;51.972;4.450;2023-04-09T04:09:16;102432.56;;;6.33;100.00
69836;BME280;57132;51.972;4.450;2023-04-09T04:11:42;102428.03;;;6.38;100.00
69836;BME280;57132;51.972;4.450;2023-04-09T04:14:07;102433.16;;;6.44;100.00
69836;BME280;57132;51.972;4.450;2023-04-09T04:16:32;102420.63;;;6.49;100.00
69836;BME280;57132;51.972;4.450;2023-04-09T04:18:58;102425.72;;;6.57;100.00
69836;BME280;57132;51.972;4.450;2023-04-09T04:21:23;102421.94;;;6.65;100.00
69836;BME280;57132;51.972;4.450;2023-04-09T04:23:49;102426.13;;;6.73;100.00
69836;BME280;57132;51.972;4.450;2023-04-09T04:26:14;102420.75;;;6.76;100.00
69836;BME280;57132;51.972;4.450;2023-04-09T04:28:39;102423.38;;;6.77;100.00
69836;BME280;57132;51.972;4.450;2023-04-09T04:31:11;102418.00;;;6.79;100.00
69836;BME280;57132;51.972;4.450;2023-04-09T04:33:37;102409.97;;;6.82;100.00
69836;BME280;57132;51.972;4.450;2023-04-09T04:36:08;102418.78;;;6.82;100.00
69836;BME280;57132;51.972;4.450;2023-04-09T04:38:33;102420.47;;;6.85;100.00
69836;BME280;57132;51.972;4.450;2023-04-09T04:40:59;102428.44;;;6.85;100.00
69836;BME280;57132;51.972;4.450;2023-04-09T04:43:25;102423.09;;;6.86;100.00
69836;BME280;57132;51.972;4.450;2023-04-09T04:45:50;102424.81;;;6.87;100.00
69836;BME280;57132;51.972;4.450;2023-04-09T04:48:15;102431.84;;;6.90;100.00
69836;BME280;57132;51.972;4.450;2023-04-09T04:50:41;102435.34;;;6.90;100.00
69836;BME280;57132;51.972;4.450;2023-04-09T04:53:06;102431.78;;;6.92;100.00
69836;BME280;57132;51.972;4.450;2023-04-09T04:55:34;102441.38;;;6.96;100.00
69836;BME280;57132;51.972;4.450;2023-04-09T04:58:00;102439.66;;;6.95;100.00
69836;BME280;57132;51.972;4.450;2023-04-09T05:00:25;102444.88;;;6.98;100.00
69836;BME280;57132;51.972;4.450;2023-04-09T05:02:50;102437.63;;;7.03;100.00
69836;BME280;57132;51.972;4.450;2023-04-09T05:05:16;102452.56;;;7.07;100.00
69836;BME280;57132;51.972;4.450;2023-04-09T05:07:41;102443.72;;;7.06;100.00
69836;BME280;57132;51.972;4.450;2023-04-09T05:10:07;102448.13;;;7.07;100.00
69836;BME280;57132;51.972;4.450;2023-04-09T05:12:32;102450.75;;;7.09;100.00
69836;BME280;57132;51.972;4.450;2023-04-09T05:14:58;102440.06;;;7.10;100.00
69836;BME280;57132;51.972;4.450;2023-04-09T05:17:23;102439.91;;;7.15;100.00
69836;BME280;57132;51.972;4.450;2023-04-09T05:19:52;102440.78;;;7.15;100.00
69836;BME280;57132;51.972;4.450;2023-04-09T05:22:19;102443.41;;;7.17;100.00
69836;BME280;57132;51.972;4.450;2023-04-09T05:24:45;102442.41;;;7.20;100.00
69836;BME280;57132;51.972;4.450;2023-04-09T05:27:10;102440.59;;;7.22;100.00
69836;BME280;57132;51.972;4.450;2023-04-09T05:29:36;102437.81;;;7.26;100.00
69836;BME280;57132;51.972;4.450;2023-04-09T05:32:02;102436.78;;;7.30;100.00
69836;BME280;57132;51.972;4.450;2023-04-09T05:34:28;102440.16;;;7.35;100.00
69836;BME280;57132;51.972;4.450;2023-04-09T05:36:53;102436.63;;;7.35;100.00
69836;BME280;57132;51.972;4.450;2023-04-09T05:39:19;102438.28;;;7.39;100.00
69836;BME280;57132;51.972;4.450;2023-04-09T05:41:46;102437.34;;;7.40;100.00
69836;BME280;57132;51.972;4.450;2023-04-09T05:44:11;102435.44;;;7.45;100.00
69836;BME280;57132;51.972;4.450;2023-04-09T05:46:37;102449.50;;;7.49;100.00
69836;BME280;57132;51.972;4.450;2023-04-09T05:49:02;102443.09;;;7.54;100.00
69836;BME280;57132;51.972;4.450;2023-04-09T05:51:28;102445.69;;;7.56;100.00
69836;BME280;57132;51.972;4.450;2023-04-09T05:53:53;102443.81;;;7.59;100.00
69836;BME280;57132;51.972;4.450;2023-04-09T05:56:19;102446.38;;;7.62;100.00
69836;BME280;57132;51.972;4.450;2023-04-09T05:58:47;102448.09;;;7.63;100.00
69836;BME280;57132;51.972;4.450;2023-04-09T06:01:12;102445.25;;;7.70;100.00
69836;BME280;57132;51.972;4.450;2023-04-09T06:03:37;102446.84;;;7.75;100.00
69836;BME280;57132;51.972;4.450;2023-04-09T06:06:03;102442.28;;;7.79;100.00
69836;BME280;57132;51.972;4.450;2023-04-09T06:08:28;102443.91;;;7.83;100.00
69836;BME280;57132;51.972;4.450;2023-04-09T06:10:54;102438.59;;;7.83;100.00
69836;BME280;57132;51.972;4.450;2023-04-09T06:13:19;102443.88;;;7.84;100.00
69836;BME280;57132;51.972;4.450;2023-04-09T06:15:45;102433.13;;;7.87;100.00
69836;BME280;57132;51.972;4.450;2023-04-09T06:18:10;102444.53;;;7.91;100.00
69836;BME280;57132;51.972;4.450;2023-04-09T06:20:36;102440.81;;;7.97;100.00
69836;BME280;57132;51.972;4.450;2023-04-09T06:23:01;102448.72;;;7.98;100.00
69836;BME280;57132;51.972;4.450;2023-04-09T06:25:26;102445.09;;;8.01;100.00
69836;BME280;57132;51.972;4.450;2023-04-09T06:27:52;102447.66;;;8.04;100.00
69836;BME280;57132;51.972;4.450;2023-04-09T06:30:17;102452.97;;;8.04;100.00
69836;BME280;57132;51.972;4.450;2023-04-09T06:32:42;102459.94;;;8.08;100.00
69836;BME280;57132;51.972;4.450;2023-04-09T06:35:09;102457.22;;;8.09;100.00
69836;BME280;57132;51.972;4.450;2023-04-09T06:37:34;102466.91;;;8.10;100.00
69836;BME280;57132;51.972;4.450;2023-04-09T06:40:00;102462.53;;;8.09;100.00
69836;BME280;57132;51.972;4.450;2023-04-09T06:42:25;102454.38;;;8.14;100.00
69836;BME280;57132;51.972;4.450;2023-04-09T06:44:51;102458.78;;;8.15;100.00
69836;BME280;57132;51.972;4.450;2023-04-09T06:47:16;102460.47;;;8.18;100.00
69836;BME280;57132;51.972;4.450;2023-04-09T06:49:41;102454.13;;;8.22;100.00
69836;BME280;57132;51.972;4.450;2023-04-09T06:52:07;102458.56;;;8.21;100.00
69836;BME280;57132;51.972;4.450;2023-04-09T06:54:32;102453.19;;;8.23;100.00
69836;BME280;57132;51.972;4.450;2023-04-09T06:56:57;102453.94;;;8.26;100.00
69836;BME280;57132;51.972;4.450;2023-04-09T06:59:22;102459.94;;;8.33;100.00
69836;BME280;57132;51.972;4.450;2023-04-09T07:01:48;102453.69;;;8.34;100.00
69836;BME280;57132;51.972;4.450;2023-04-09T07:04:13;102458.94;;;8.37;100.00
69836;BME280;57132;51.972;4.450;2023-04-09T07:06:38;102452.69;;;8.38;100.00
69836;BME280;57132;51.972;4.450;2023-04-09T07:09:04;102455.16;;;8.43;100.00
69836;BME280;57132;51.972;4.450;2023-04-09T07:11:31;102455.94;;;8.46;100.00
69836;BME280;57132;51.972;4.450;2023-04-09T07:13:57;102461.16;;;8.49;100.00
69836;BME280;57132;51.972;4.450;2023-04-09T07:16:23;102458.31;;;8.54;100.00
69836;BME280;57132;51.972;4.450;2023-04-09T07:18:48;102459.19;;;8.54;100.00
69836;BME280;57132;51.972;4.450;2023-04-09T07:21:13;102460.81;;;8.58;100.00
69836;BME280;57132;51.972;4.450;2023-04-09T07:23:38;102461.63;;;8.60;100.00
69836;BME280;57132;51.972;4.450;2023-04-09T07:26:05;102458.97;;;8.60;100.00
69836;BME280;57132;51.972;4.450;2023-04-09T07:28:30;102465.06;;;8.64;100.00
69836;BME280;57132;51.972;4.450;2023-04-09T07:30:56;102472.22;;;8.62;100.00
69836;BME280;57132;51.972;4.450;2023-04-09T07:33:21;102465.06;;;8.64;100.00
69836;BME280;57132;51.972;4.450;2023-04-09T07:35:46;102470.97;;;8.72;100.00
69836;BME280;57132;51.972;4.450;2023-04-09T07:38:12;102478.72;;;8.78;100.00
69836;BME280;57132;51.972;4.450;2023-04-09T07:40:37;102474.25;;;8.79;100.00
69836;BME280;57132;51.972;4.450;2023-04-09T07:43:03;102478.59;;;8.81;100.00
69836;BME280;57132;51.972;4.450;2023-04-09T07:45:28;102471.47;;;8.82;100.00
69836;BME280;57132;51.972;4.450;2023-04-09T07:47:53;102470.44;;;8.86;100.00
69836;BME280;57132;51.972;4.450;2023-04-09T07:50:20;102472.06;;;8.90;100.00
69836;BME280;57132;51.972;4.450;2023-04-09T07:52:46;102468.41;;;8.93;100.00
69836;BME280;57132;51.972;4.450;2023-04-09T07:55:11;102474.72;;;8.90;100.00
69836;BME280;57132;51.972;4.450;2023-04-09T07:57:37;102464.78;;;8.95;100.00
69836;BME280;57132;51.972;4.450;2023-04-09T08:00:03;102469.00;;;9.01;100.00
69836;BME280;57132;51.972;4.450;2023-04-09T08:02:32;102471.47;;;9.05;100.00
69836;BME280;57132;51.972;4.450;2023-04-09T08:04:57;102474.97;;;9.07;100.00
69836;BME280;57132;51.972;4.450;2023-04-09T08:07:23;102472.53;;;9.01;100.00
69836;BME280;57132;51.972;4.450;2023-04-09T08:09:48;102468.94;;;9.02;100.00
69836;BME280;57132;51.972;4.450;2023-04-09T08:12:13;102479.59;;;9.02;100.00
69836;BME280;57132;51.972;4.450;2023-04-09T08:14:39;102474.16;;;9.05;100.00
69836;BME280;57132;51.972;4.450;2023-04-09T08:17:05;102477.69;;;9.06;100.00
69836;BME280;57132;51.972;4.450;2023-04-09T08:19:30;102483.13;;;9.03;100.00
69836;BME280;57132;51.972;4.450;2023-04-09T08:21:56;102474.91;;;9.09;100.00
69836;BME280;57132;51.972;4.450;2023-04-09T08:24:23;102474.72;;;9.14;100.00
69836;BME280;57132;51.972;4.450;2023-04-09T08:26:48;102478.97;;;9.19;100.00
69836;BME280;57132;51.972;4.450;2023-04-09T08:29:14;102485.91;;;9.23;100.00
69836;BME280;57132;51.972;4.450;2023-04-09T08:31:39;102485.16;;;9.20;100.00
69836;BME280;57132;51.972;4.450;2023-04-09T08:34:05;102486.00;;;9.20;100.00
69836;BME280;57132;51.972;4.450;2023-04-09T08:36:30;102493.16;;;9.20;100.00
69836;BME280;57132;51.972;4.450;2023-04-09T08:38:56;102492.22;;;9.21;100.00
69836;BME280;57132;51.972;4.450;2023-04-09T08:41:23;102493.16;;;9.20;100.00
69836;BME280;57132;51.972;4.450;2023-04-09T08:43:50;102493.19;;;9.18;100.00
69836;BME280;57132;51.972;4.450;2023-04-09T08:46:20;102490.47;;;9.20;100.00
69836;BME280;57132;51.972;4.450;2023-04-09T08:48:47;102492.28;;;9.19;100.00
69836;BME280;57132;51.972;4.450;2023-04-09T08:51:17;102487.81;;;9.20;100.00
69836;BME280;57132;51.972;4.450;2023-04-09T08:53:54;102493.19;;;9.18;100.00
69836;BME280;57132;51.972;4.450;2023-04-09T08:56:21;102486.00;;;9.20;100.00
69836;BME280;57132;51.972;4.450;2023-04-09T08:58:48;102490.38;;;9.23;100.00
69836;BME280;57132;51.972;4.450;2023-04-09T09:01:26;102487.56;;;9.26;100.00
69836;BME280;57132;51.972;4.450;2023-04-09T09:04:03;102482.75;;;9.35;100.00
69836;BME280;57132;51.972;4.450;2023-04-09T09:06:31;102485.16;;;9.42;100.00
69836;BME280;57132;51.972;4.450;2023-04-09T09:09:06;102488.00;;;9.37;100.00
69836;BME280;57132;51.972;4.450;2023-04-09T09:11:33;102489.75;;;9.38;100.00
69836;BME280;57132;51.972;4.450;2023-04-09T09:14:06;102484.25;;;9.43;100.00
69836;BME280;57132;51.972;4.450;2023-04-09T09:16:38;102494.22;;;9.38;100.00
69836;BME280;57132;51.972;4.450;2023-04-09T09:19:04;102493.88;;;9.47;100.00
69836;BME280;57132;51.972;4.450;2023-04-09T09:21:30;102489.41;;;9.47;100.00
69836;BME280;57132;51.972;4.450;2023-04-09T09:23:56;102491.19;;;9.47;100.00
69836;BME280;57132;51.972;4.450;2023-04-09T09:26:24;102491.13;;;9.48;100.00
69836;BME280;57132;51.972;4.450;2023-04-09T09:28:51;102486.47;;;9.53;100.00
69836;BME280;57132;51.972;4.450;2023-04-09T09:31:18;102480.84;;;9.61;100.00
69836;BME280;57132;51.972;4.450;2023-04-09T09:33:45;102472.59;;;9.67;100.00
69836;BME280;57132;51.972;4.450;2023-04-09T09:36:12;102474.63;;;9.60;100.00
69836;BME280;57132;51.972;4.450;2023-04-09T09:38:55;102476.69;;;9.54;100.00
69836;BME280;57132;51.972;4.450;2023-04-09T09:41:21;102474.75;;;9.57;100.00
69836;BME280;57132;51.972;4.450;2023-04-09T09:43:47;102469.31;;;9.60;100.00
69836;BME280;57132;51.972;4.450;2023-04-09T09:46:14;102467.38;;;9.64;100.00
69836;BME280;57132;51.972;4.450;2023-04-09T09:48:40;102467.00;;;9.73;100.00
69836;BME280;57132;51.972;4.450;2023-04-09T09:51:09;102463.22;;;9.79;100.00
69836;BME280;57132;51.972;4.450;2023-04-09T09:53:36;102468.06;;;9.91;100.00
69836;BME280;57132;51.972;4.450;2023-04-09T09:56:06;102461.91;;;10.09;100.00
69836;BME280;57132;51.972;4.450;2023-04-09T09:58:39;102458.50;;;10.28;100.00
69836;BME280;57132;51.972;4.450;2023-04-09T10:01:12;102455.28;;;10.40;100.00
69836;BME280;57132;51.972;4.450;2023-04-09T10:03:39;102456.84;;;10.46;100.00
69836;BME280;57132;51.972;4.450;2023-04-09T10:06:05;102453.00;;;10.51;100.00
69836;BME280;57132;51.972;4.450;2023-04-09T10:08:33;102448.28;;;10.58;100.00
69836;BME280;57132;51.972;4.450;2023-04-09T10:11:00;102453.56;;;10.78;100.00
69836;BME280;57132;51.972;4.450;2023-04-09T10:13:50;102459.72;;;10.99;100.00
69836;BME280;57132;51.972;4.450;2023-04-09T10:16:17;102454.97;;;11.25;100.00
69836;BME280;57132;51.972;4.450;2023-04-09T10:18:43;102450.16;;;11.50;100.00
69836;BME280;57132;51.972;4.450;2023-04-09T10:23:52;102431.03;;;11.94;100.00
69836;BME280;57132;51.972;4.450;2023-04-09T10:26:18;102433.03;;;12.08;100.00
69836;BME280;57132;51.972;4.450;2023-04-09T10:28:44;102422.28;;;12.25;100.00
69836;BME280;57132;51.972;4.450;2023-04-09T10:31:09;102429.81;;;12.52;100.00
69836;BME280;57132;51.972;4.450;2023-04-09T10:33:37;102422.59;;;12.70;100.00
69836;BME280;57132;51.972;4.450;2023-04-09T10:36:04;102426.38;;;12.66;100.00
69836;BME280;57132;51.972;4.450;2023-04-09T10:38:37;102417.06;;;12.73;100.00
69836;BME280;57132;51.972;4.450;2023-04-09T10:41:13;102414.56;;;12.86;100.00
69836;BME280;57132;51.972;4.450;2023-04-09T10:43:40;102404.16;;;13.28;100.00
69836;BME280;57132;51.972;4.450;2023-04-09T10:46:24;102414.84;;;13.60;100.00
69836;BME280;57132;51.972;4.450;2023-04-09T10:51:35;102409.53;;;14.19;100.00
69836;BME280;57132;51.972;4.450;2023-04-09T10:54:03;102405.63;;;14.39;100.00
69836;BME280;57132;51.972;4.450;2023-04-09T10:56:28;102405.66;;;14.82;100.00
69836;BME280;57132;51.972;4.450;2023-04-09T10:58:54;102408.16;;;14.70;98.46
69836;BME280;57132;51.972;4.450;2023-04-09T11:01:20;102398.19;;;14.58;98.44
69836;BME280;57132;51.972;4.450;2023-04-09T11:04:06;102393.75;;;14.43;97.27
69836;BME280;57132;51.972;4.450;2023-04-09T11:06:35;102395.34;;;14.88;98.17
69836;BME280;57132;51.972;4.450;2023-04-09T11:09:02;102386.84;;;15.50;94.95
69836;BME280;57132;51.972;4.450;2023-04-09T11:11:28;102387.34;;;15.69;89.48
69836;BME280;57132;51.972;4.450;2023-04-09T11:14:00;102380.47;;;15.78;87.23
69836;BME280;57132;51.972;4.450;2023-04-09T11:16:28;102391.19;;;15.92;89.79
69836;BME280;57132;51.972;4.450;2023-04-09T11:18:54;102377.81;;;16.42;83.89
69836;BME280;57132;51.972;4.450;2023-04-09T11:21:20;102372.16;;;16.70;83.42
69836;BME280;57132;51.972;4.450;2023-04-09T11:23:52;102380.25;;;17.68;80.70
69836;BME280;57132;51.972;4.450;2023-04-09T11:26:22;102369.41;;;17.09;73.81
69836;BME280;57132;51.972;4.450;2023-04-09T11:28:48;102375.13;;;18.11;72.13
69836;BME280;57132;51.972;4.450;2023-04-09T11:31:15;102378.34;;;18.84;68.26
69836;BME280;57132;51.972;4.450;2023-04-09T11:33:44;102372.25;;;19.25;63.08
69836;BME280;57132;51.972;4.450;2023-04-09T11:36:10;102368.75;;;18.68;64.62
69836;BME280;57132;51.972;4.450;2023-04-09T11:38:36;102373.28;;;18.57;65.00
69836;BME280;57132;51.972;4.450;2023-04-09T11:41:02;102366.44;;;18.41;66.02
69836;BME280;57132;51.972;4.450;2023-04-09T11:43:27;102369.59;;;18.02;70.66
69836;BME280;57132;51.972;4.450;2023-04-09T11:45:52;102365.63;;;17.94;68.25
69836;BME280;57132;51.972;4.450;2023-04-09T11:48:18;102366.81;;;17.79;70.69
69836;BME280;57132;51.972;4.450;2023-04-09T11:50:46;102356.06;;;17.66;71.34
69836;BME280;57132;51.972;4.450;2023-04-09T11:53:20;102352.88;;;17.73;69.49
69836;BME280;57132;51.972;4.450;2023-04-09T11:55:49;102348.16;;;17.28;70.94
69836;BME280;57132;51.972;4.450;2023-04-09T11:58:15;102354.19;;;17.56;73.27
69836;BME280;57132;51.972;4.450;2023-04-09T12:00:41;102354.16;;;17.80;72.08
69836;BME280;57132;51.972;4.450;2023-04-09T12:03:09;102360.22;;;17.94;71.57
69836;BME280;57132;51.972;4.450;2023-04-09T12:05:34;102354.22;;;17.67;72.81
69836;BME280;57132;51.972;4.450;2023-04-09T12:08:01;102355.09;;;18.14;71.95
69836;BME280;57132;51.972;4.450;2023-04-09T12:10:30;102359.88;;;18.10;72.21
69836;BME280;57132;51.972;4.450;2023-04-09T12:13:05;102350.16;;;19.41;64.04
69836;BME280;57132;51.972;4.450;2023-04-09T12:15:32;102349.69;;;18.92;61.80
69836;BME280;57132;51.972;4.450;2023-04-09T12:17:58;102345.53;;;18.66;63.88
69836;BME280;57132;51.972;4.450;2023-04-09T12:20:28;102341.34;;;18.62;67.11
69836;BME280;57132;51.972;4.450;2023-04-09T12:22:54;102343.41;;;18.92;68.41
69836;BME280;57132;51.972;4.450;2023-04-09T12:25:19;102344.34;;;19.13;63.92
69836;BME280;57132;51.972;4.450;2023-04-09T12:27:45;102349.16;;;19.10;67.97
69836;BME280;57132;51.972;4.450;2023-04-09T12:30:11;102358.09;;;18.78;67.78
69836;BME280;57132;51.972;4.450;2023-04-09T12:32:37;102357.94;;;18.24;67.43
69836;BME280;57132;51.972;4.450;2023-04-09T12:35:03;102352.81;;;17.26;67.58
69836;BME280;57132;51.972;4.450;2023-04-09T12:37:30;102344.84;;;17.01;70.81
69836;BME280;57132;51.972;4.450;2023-04-09T12:39:55;102352.06;;;17.00;72.83
69836;BME280;57132;51.972;4.450;2023-04-09T12:42:21;102350.38;;;17.23;69.70
69836;BME280;57132;51.972;4.450;2023-04-09T12:44:46;102342.06;;;17.37;73.31
69836;BME280;57132;51.972;4.450;2023-04-09T12:47:11;102343.91;;;17.72;72.13
69836;BME280;57132;51.972;4.450;2023-04-09T12:49:37;102341.56;;;18.03;69.30
69836;BME280;57132;51.972;4.450;2023-04-09T12:52:02;102338.84;;;17.91;68.61
69836;BME280;57132;51.972;4.450;2023-04-09T12:54:29;102347.56;;;17.95;67.64
69836;BME280;57132;51.972;4.450;2023-04-09T12:56:55;102340.53;;;17.81;70.66
69836;BME280;57132;51.972;4.450;2023-04-09T12:59:20;102333.41;;;17.80;68.88